createdAt,value
2016-06-12T00:00:32.483Z,0
2016-06-12T00:01:32.454Z,0
2016-06-12T00:02:32.520Z,0
2016-06-12T00:03:32.507Z,0
2016-06-12T00:04:32.401Z,0
2016-06-12T00:05:33.513Z,0
2016-06-12T00:06:32.533Z,0
2016-06-12T00:07:32.536Z,0
2016-06-12T00:08:32.564Z,0
2016-06-12T00:09:32.621Z,0
2016-06-12T00:10:32.662Z,0
2016-06-12T00:11:32.719Z,0
2016-06-12T00:12:32.744Z,0
2016-06-12T00:13:32.785Z,0
2016-06-12T00:14:32.801Z,0
2016-06-12T00:15:32.835Z,0
2016-06-12T00:16:32.851Z,0
2016-06-12T00:17:32.868Z,0
2016-06-12T00:18:32.879Z,0
2016-06-12T00:19:34.043Z,0
2016-06-12T00:20:33.348Z,0
2016-06-12T00:21:32.934Z,0
2016-06-12T00:22:32.926Z,0
2016-06-12T00:23:32.964Z,0
2016-06-12T00:24:32.953Z,0
2016-06-12T00:25:32.974Z,0
2016-06-12T00:26:32.979Z,0
2016-06-12T00:27:32.999Z,0
2016-06-12T00:28:32.988Z,0
2016-06-12T00:29:32.851Z,0
2016-06-12T00:30:33.010Z,0
2016-06-12T00:31:35.374Z,0
2016-06-12T00:32:33.017Z,0
2016-06-12T00:33:33.037Z,0
2016-06-12T00:34:33.352Z,0
2016-06-12T00:35:33.699Z,0
2016-06-12T00:36:33.062Z,0
2016-06-12T00:37:33.065Z,0
2016-06-12T00:38:33.068Z,0
2016-06-12T00:39:33.072Z,0
2016-06-12T00:40:33.090Z,0
2016-06-12T00:41:33.094Z,0
2016-06-12T00:42:33.096Z,0
2016-06-12T00:43:33.100Z,0
2016-06-12T00:44:33.087Z,0
2016-06-12T00:45:33.122Z,0
2016-06-12T00:46:33.125Z,0
2016-06-12T00:47:33.143Z,0
2016-06-12T00:48:33.193Z,0
2016-06-12T00:49:33.166Z,0
2016-06-12T00:50:34.496Z,0
2016-06-12T00:51:33.156Z,0
2016-06-12T00:52:33.158Z,0
2016-06-12T00:53:33.178Z,0
2016-06-12T00:54:33.197Z,0
2016-06-12T00:55:33.199Z,0
2016-06-12T00:56:33.218Z,0
2016-06-12T00:57:33.065Z,0
2016-06-12T00:58:33.224Z,0
2016-06-12T00:59:33.243Z,0
2016-06-12T01:00:33.230Z,0
2016-06-12T01:01:33.249Z,0
2016-06-12T01:02:33.236Z,0
2016-06-12T01:03:33.256Z,0
2016-06-12T01:04:33.289Z,0
2016-06-12T01:05:33.542Z,0
2016-06-12T01:06:33.261Z,0
2016-06-12T01:07:33.279Z,0
2016-06-12T01:08:33.143Z,0
2016-06-12T01:09:33.285Z,0
2016-06-12T01:10:33.305Z,0
2016-06-12T01:11:33.308Z,0
2016-06-12T01:12:33.326Z,0
2016-06-12T01:13:33.330Z,0
2016-06-12T01:14:33.317Z,0
2016-06-12T01:15:33.351Z,0
2016-06-12T01:16:33.355Z,0
2016-06-12T01:17:33.357Z,0
2016-06-12T01:18:33.361Z,0
2016-06-12T01:19:33.363Z,0
2016-06-12T01:20:33.554Z,0
2016-06-12T01:21:33.229Z,0
2016-06-12T01:22:33.388Z,0
2016-06-12T01:23:33.408Z,0
2016-06-12T01:24:33.395Z,0
2016-06-12T01:25:33.414Z,0
2016-06-12T01:26:33.432Z,0
2016-06-12T01:27:33.420Z,0
2016-06-12T01:28:33.438Z,0
2016-06-12T01:29:33.441Z,0
2016-06-12T01:30:33.288Z,0
2016-06-12T01:31:33.464Z,0
2016-06-12T01:32:33.466Z,0
2016-06-12T01:33:33.313Z,0
2016-06-12T01:34:33.473Z,0
2016-06-12T01:35:33.710Z,0
2016-06-12T01:36:33.494Z,0
2016-06-12T01:37:33.513Z,0
2016-06-12T01:38:33.500Z,0
2016-06-12T01:39:33.363Z,0
2016-06-12T01:40:33.522Z,0
2016-06-12T01:41:33.526Z,0
2016-06-12T01:42:33.544Z,0
2016-06-12T01:43:33.562Z,0
2016-06-12T01:44:33.393Z,0
2016-06-12T01:45:33.554Z,0
2016-06-12T01:46:33.572Z,0
2016-06-12T01:47:33.590Z,0
2016-06-12T01:48:33.641Z,0
2016-06-12T01:49:33.597Z,0
2016-06-12T01:50:33.616Z,0
2016-06-12T01:51:33.619Z,0
2016-06-12T01:52:33.606Z,0
2016-06-12T01:53:33.640Z,0
2016-06-12T01:54:33.628Z,0
2016-06-12T01:55:33.647Z,0
2016-06-12T01:56:33.618Z,0
2016-06-12T01:57:33.652Z,0
2016-06-12T01:58:33.641Z,0
2016-06-12T01:59:33.658Z,0
2016-06-12T02:00:33.678Z,0
2016-06-12T02:01:33.696Z,0
2016-06-12T02:02:33.684Z,0
2016-06-12T02:03:33.687Z,0
2016-06-12T02:04:33.549Z,0
2016-06-12T02:05:33.724Z,0
2016-06-12T02:06:33.696Z,0
2016-06-12T02:07:33.714Z,0
2016-06-12T02:08:33.733Z,0
2016-06-12T02:09:33.737Z,0
2016-06-12T02:10:33.740Z,0
2016-06-12T02:11:33.743Z,0
2016-06-12T02:12:33.777Z,0
2016-06-12T02:13:33.749Z,0
2016-06-12T02:14:33.783Z,0
2016-06-12T02:15:33.771Z,0
2016-06-12T02:16:33.789Z,0
2016-06-12T02:17:33.792Z,0
2016-06-12T02:18:33.795Z,0
2016-06-12T02:19:33.798Z,0
2016-06-12T02:20:33.833Z,0
2016-06-12T02:21:33.804Z,0
2016-06-12T02:22:33.855Z,0
2016-06-12T02:23:33.857Z,0
2016-06-12T02:24:34.016Z,0
2016-06-12T02:25:33.848Z,0
2016-06-12T02:26:33.852Z,0
2016-06-12T02:27:33.870Z,0
2016-06-12T02:28:33.872Z,0
2016-06-12T02:29:33.907Z,0
2016-06-12T02:30:33.895Z,0
2016-06-12T02:31:33.898Z,0
2016-06-12T02:32:33.885Z,0
2016-06-12T02:33:33.936Z,0
2016-06-12T02:34:33.922Z,0
2016-06-12T02:35:34.550Z,0
2016-06-12T02:36:33.928Z,0
2016-06-12T02:37:33.931Z,0
2016-06-12T02:38:33.935Z,0
2016-06-12T02:39:33.954Z,0
2016-06-12T02:40:33.957Z,0
2016-06-12T02:41:33.959Z,0
2016-06-12T02:42:33.979Z,0
2016-06-12T02:43:33.841Z,0
2016-06-12T02:44:33.985Z,0
2016-06-12T02:45:33.988Z,0
2016-06-12T02:46:33.991Z,0
2016-06-12T02:47:34.009Z,0
2016-06-12T02:48:33.903Z,4
2016-06-12T02:49:34.015Z,4
2016-06-12T02:50:33.753Z,4
2016-06-12T02:51:34.037Z,4
2016-06-12T02:52:34.041Z,4
2016-06-12T02:53:34.059Z,0
2016-06-12T02:54:34.062Z,0
2016-06-12T02:55:34.081Z,0
2016-06-12T02:56:34.100Z,0
2016-06-12T02:57:34.071Z,4
2016-06-12T02:58:34.090Z,4
2016-06-12T02:59:34.093Z,4
2016-06-12T03:00:33.956Z,4
2016-06-12T03:01:34.115Z,4
2016-06-12T03:02:34.133Z,4
2016-06-12T03:03:34.121Z,4
2016-06-12T03:04:34.124Z,4
2016-06-12T03:05:34.612Z,4
2016-06-12T03:06:34.145Z,8
2016-06-12T03:07:34.148Z,8
2016-06-12T03:08:34.168Z,4
2016-06-12T03:09:34.171Z,4
2016-06-12T03:10:34.173Z,8
2016-06-12T03:11:34.177Z,8
2016-06-12T03:12:34.180Z,8
2016-06-12T03:13:34.199Z,8
2016-06-12T03:14:34.217Z,8
2016-06-12T03:15:34.220Z,12
2016-06-12T03:16:34.224Z,8
2016-06-12T03:17:34.070Z,12
2016-06-12T03:18:34.245Z,12
2016-06-12T03:19:34.264Z,8
2016-06-12T03:20:34.267Z,8
2016-06-12T03:21:34.286Z,12
2016-06-12T03:22:34.273Z,12
2016-06-12T03:23:34.291Z,12
2016-06-12T03:24:34.280Z,12
2016-06-12T03:25:34.298Z,16
2016-06-12T03:26:34.129Z,12
2016-06-12T03:27:34.304Z,16
2016-06-12T03:28:34.307Z,12
2016-06-12T03:29:34.341Z,16
2016-06-12T03:30:34.330Z,16
2016-06-12T03:31:34.332Z,16
2016-06-12T03:32:34.179Z,16
2016-06-12T03:33:34.339Z,16
2016-06-12T03:34:34.342Z,16
2016-06-12T03:35:35.282Z,16
2016-06-12T03:36:34.456Z,16
2016-06-12T03:37:34.382Z,20
2016-06-12T03:38:34.369Z,16
2016-06-12T03:39:34.388Z,16
2016-06-12T03:40:34.407Z,20
2016-06-12T03:41:34.394Z,20
2016-06-12T03:42:34.429Z,20
2016-06-12T03:43:34.416Z,24
2016-06-12T03:44:34.419Z,24
2016-06-12T03:45:34.422Z,24
2016-06-12T03:46:34.425Z,24
2016-06-12T03:47:34.460Z,24
2016-06-12T03:48:34.510Z,28
2016-06-12T03:49:34.465Z,28
2016-06-12T03:50:35.594Z,28
2016-06-12T03:51:34.488Z,28
2016-06-12T03:52:34.491Z,36
2016-06-12T03:53:34.494Z,36
2016-06-12T03:54:34.497Z,40
2016-06-12T03:55:34.501Z,44
2016-06-12T03:56:34.503Z,44
2016-06-12T03:57:34.537Z,52
2016-06-12T03:58:34.524Z,52
2016-06-12T03:59:34.543Z,56
2016-06-12T04:00:34.547Z,60
2016-06-12T04:01:34.550Z,64
2016-06-12T04:02:34.396Z,68
2016-06-12T04:03:34.570Z,72
2016-06-12T04:04:34.559Z,84
2016-06-12T04:05:34.577Z,88
2016-06-12T04:06:35.065Z,100
2016-06-12T04:07:34.599Z,108
2016-06-12T04:08:34.586Z,120
2016-06-12T04:09:34.589Z,128
2016-06-12T04:10:34.624Z,136
2016-06-12T04:11:34.627Z,144
2016-06-12T04:12:34.645Z,156
2016-06-12T04:13:34.633Z,168
2016-06-12T04:14:34.480Z,180
2016-06-12T04:15:34.654Z,204
2016-06-12T04:16:34.658Z,228
2016-06-12T04:17:34.661Z,244
2016-06-12T04:18:34.524Z,264
2016-06-12T04:19:34.682Z,276
2016-06-12T04:20:34.702Z,288
2016-06-12T04:21:35.705Z,292
2016-06-12T04:22:34.692Z,300
2016-06-12T04:23:34.711Z,308
2016-06-12T04:24:34.729Z,316
2016-06-12T04:25:34.718Z,324
2016-06-12T04:26:34.735Z,340
2016-06-12T04:27:34.738Z,348
2016-06-12T04:28:34.741Z,348
2016-06-12T04:29:34.745Z,344
2016-06-12T04:30:34.748Z,348
2016-06-12T04:31:34.767Z,352
2016-06-12T04:32:34.769Z,344
2016-06-12T04:33:34.788Z,336
2016-06-12T04:34:34.791Z,328
2016-06-12T04:35:35.451Z,328
2016-06-12T04:36:35.501Z,336
2016-06-12T04:37:34.832Z,344
2016-06-12T04:38:34.820Z,356
2016-06-12T04:39:34.822Z,376
2016-06-12T04:40:34.684Z,400
2016-06-12T04:41:34.860Z,428
2016-06-12T04:42:34.848Z,440
2016-06-12T04:43:34.851Z,448
2016-06-12T04:44:34.854Z,436
2016-06-12T04:45:34.872Z,428
2016-06-12T04:46:34.875Z,416
2016-06-12T04:47:34.894Z,400
2016-06-12T04:48:34.897Z,380
2016-06-12T04:49:34.900Z,376
2016-06-12T04:50:34.903Z,352
2016-06-12T04:51:34.609Z,336
2016-06-12T04:52:34.957Z,328
2016-06-12T04:53:34.928Z,320
2016-06-12T04:54:34.915Z,312
2016-06-12T04:55:34.935Z,304
2016-06-12T04:56:34.953Z,288
2016-06-12T04:57:34.955Z,280
2016-06-12T04:58:34.975Z,272
2016-06-12T04:59:34.978Z,272
2016-06-12T05:00:34.981Z,268
2016-06-12T05:01:34.984Z,272
2016-06-12T05:02:35.002Z,276
2016-06-12T05:03:35.005Z,284
2016-06-12T05:04:35.008Z,288
2016-06-12T05:05:35.011Z,292
2016-06-12T05:06:35.562Z,300
2016-06-12T05:07:35.034Z,312
2016-06-12T05:08:35.036Z,320
2016-06-12T05:09:35.055Z,320
2016-06-12T05:10:35.059Z,320
2016-06-12T05:11:35.046Z,320
2016-06-12T05:12:35.064Z,324
2016-06-12T05:13:35.083Z,320
2016-06-12T05:14:35.086Z,324
2016-06-12T05:15:35.089Z,324
2016-06-12T05:16:35.108Z,320
2016-06-12T05:17:35.111Z,316
2016-06-12T05:18:35.614Z,312
2016-06-12T05:19:35.134Z,308
2016-06-12T05:20:35.120Z,308
2016-06-12T05:21:35.842Z,308
2016-06-12T05:22:35.143Z,312
2016-06-12T05:23:35.146Z,320
2016-06-12T05:24:35.163Z,328
2016-06-12T05:25:35.167Z,340
2016-06-12T05:26:35.169Z,348
2016-06-12T05:27:35.189Z,352
2016-06-12T05:28:35.207Z,364
2016-06-12T05:29:35.195Z,368
2016-06-12T05:30:35.042Z,376
2016-06-12T05:31:35.202Z,384
2016-06-12T05:32:35.219Z,396
2016-06-12T05:33:35.208Z,412
2016-06-12T05:34:35.210Z,428
2016-06-12T05:35:35.229Z,440
2016-06-12T05:36:35.091Z,452
2016-06-12T05:37:35.251Z,456
2016-06-12T05:38:35.301Z,460
2016-06-12T05:39:35.257Z,472
2016-06-12T05:40:35.276Z,464
2016-06-12T05:41:35.294Z,476
2016-06-12T05:42:35.297Z,496
2016-06-12T05:43:35.300Z,508
2016-06-12T05:44:35.319Z,528
2016-06-12T05:45:35.306Z,548
2016-06-12T05:46:35.325Z,568
2016-06-12T05:47:35.328Z,576
2016-06-12T05:48:35.331Z,596
2016-06-12T05:49:35.334Z,608
2016-06-12T05:50:35.337Z,620
2016-06-12T05:51:35.622Z,632
2016-06-12T05:52:35.375Z,640
2016-06-12T05:53:35.363Z,644
2016-06-12T05:54:35.381Z,644
2016-06-12T05:55:35.384Z,636
2016-06-12T05:56:35.387Z,640
2016-06-12T05:57:35.234Z,656
2016-06-12T05:58:35.425Z,672
2016-06-12T05:59:35.412Z,676
2016-06-12T06:00:35.430Z,668
2016-06-12T06:01:35.263Z,668
2016-06-12T06:02:35.436Z,668
2016-06-12T06:03:35.440Z,656
2016-06-12T06:04:35.442Z,656
2016-06-12T06:05:35.478Z,648
2016-06-12T06:06:35.433Z,636
2016-06-12T06:07:35.468Z,632
2016-06-12T06:08:35.471Z,628
2016-06-12T06:09:35.474Z,624
2016-06-12T06:10:35.493Z,612
2016-06-12T06:11:35.527Z,588
2016-06-12T06:12:35.514Z,564
2016-06-12T06:13:35.517Z,544
2016-06-12T06:14:35.520Z,520
2016-06-12T06:15:35.540Z,508
2016-06-12T06:16:35.558Z,488
2016-06-12T06:17:35.561Z,468
2016-06-12T06:18:35.549Z,456
2016-06-12T06:19:35.583Z,444
2016-06-12T06:20:35.571Z,432
2016-06-12T06:21:35.932Z,424
2016-06-12T06:22:35.577Z,416
2016-06-12T06:23:35.580Z,408
2016-06-12T06:24:35.598Z,404
2016-06-12T06:25:35.601Z,396
2016-06-12T06:26:35.621Z,400
2016-06-12T06:27:35.623Z,400
2016-06-12T06:28:35.626Z,400
2016-06-12T06:29:35.630Z,396
2016-06-12T06:30:35.648Z,392
2016-06-12T06:31:35.651Z,388
2016-06-12T06:32:35.653Z,384
2016-06-12T06:33:35.673Z,380
2016-06-12T06:34:35.692Z,376
2016-06-12T06:35:35.678Z,368
2016-06-12T06:36:35.760Z,368
2016-06-12T06:37:35.701Z,368
2016-06-12T06:38:35.532Z,368
2016-06-12T06:39:35.722Z,372
2016-06-12T06:40:35.726Z,372
2016-06-12T06:41:35.729Z,376
2016-06-12T06:42:35.731Z,376
2016-06-12T06:43:35.735Z,380
2016-06-12T06:44:35.753Z,376
2016-06-12T06:45:35.741Z,376
2016-06-12T06:46:35.760Z,376
2016-06-12T06:47:35.763Z,376
2016-06-12T06:48:35.782Z,372
2016-06-12T06:49:35.830Z,372
2016-06-12T06:50:35.788Z,364
2016-06-12T06:51:35.806Z,360
2016-06-12T06:52:35.809Z,352
2016-06-12T06:53:35.875Z,348
2016-06-12T06:54:35.846Z,344
2016-06-12T06:55:35.834Z,344
2016-06-12T06:56:35.837Z,348
2016-06-12T06:57:35.841Z,348
2016-06-12T06:58:35.844Z,352
2016-06-12T06:59:35.861Z,356
2016-06-12T07:00:35.865Z,348
2016-06-12T07:01:35.884Z,348
2016-06-12T07:02:35.887Z,348
2016-06-12T07:03:36.234Z,344
2016-06-12T07:04:35.893Z,340
2016-06-12T07:05:35.896Z,340
2016-06-12T07:06:35.946Z,344
2016-06-12T07:07:35.919Z,348
2016-06-12T07:08:35.922Z,352
2016-06-12T07:09:35.925Z,356
2016-06-12T07:10:35.942Z,364
2016-06-12T07:11:35.946Z,372
2016-06-12T07:12:35.949Z,388
2016-06-12T07:13:35.984Z,396
2016-06-12T07:14:35.986Z,408
2016-06-12T07:15:35.974Z,432
2016-06-12T07:16:35.977Z,460
2016-06-12T07:17:35.996Z,496
2016-06-12T07:18:35.999Z,512
2016-06-12T07:19:36.017Z,500
2016-06-12T07:20:36.005Z,472
2016-06-12T07:21:35.961Z,480
2016-06-12T07:22:36.042Z,472
2016-06-12T07:23:35.874Z,464
2016-06-12T07:24:36.033Z,468
2016-06-12T07:25:36.051Z,456
2016-06-12T07:26:36.055Z,452
2016-06-12T07:27:36.057Z,436
2016-06-12T07:28:36.075Z,440
2016-06-12T07:29:36.079Z,432
2016-06-12T07:30:36.098Z,396
2016-06-12T07:31:36.085Z,384
2016-06-12T07:32:36.088Z,380
2016-06-12T07:33:36.107Z,380
2016-06-12T07:34:36.126Z,380
2016-06-12T07:35:36.129Z,380
2016-06-12T07:36:36.757Z,380
2016-06-12T07:37:36.385Z,384
2016-06-12T07:38:36.154Z,380
2016-06-12T07:39:36.157Z,380
2016-06-12T07:40:36.035Z,380
2016-06-12T07:41:36.163Z,388
2016-06-12T07:42:36.026Z,388
2016-06-12T07:43:36.029Z,384
2016-06-12T07:44:36.204Z,384
2016-06-12T07:45:36.191Z,392
2016-06-12T07:46:36.210Z,412
2016-06-12T07:47:36.228Z,440
2016-06-12T07:48:36.216Z,504
2016-06-12T07:49:36.297Z,568
2016-06-12T07:50:36.237Z,628
2016-06-12T07:51:36.256Z,632
2016-06-12T07:52:36.899Z,584
2016-06-12T07:53:36.263Z,504
2016-06-12T07:54:36.281Z,480
2016-06-12T07:55:36.284Z,464
2016-06-12T07:56:36.287Z,480
2016-06-12T07:57:36.290Z,476
2016-06-12T07:58:36.293Z,488
2016-06-12T07:59:36.296Z,476
2016-06-12T08:00:36.331Z,468
2016-06-12T08:01:36.334Z,472
2016-06-12T08:02:36.338Z,480
2016-06-12T08:03:36.340Z,492
2016-06-12T08:04:36.344Z,532
2016-06-12T08:05:36.330Z,520
2016-06-12T08:06:37.489Z,532
2016-06-12T08:07:36.228Z,584
2016-06-12T08:08:36.370Z,560
2016-06-12T08:09:36.546Z,520
2016-06-12T08:10:36.393Z,488
2016-06-12T08:11:36.396Z,472
2016-06-12T08:12:36.399Z,484
2016-06-12T08:13:36.418Z,488
2016-06-12T08:14:36.264Z,488
2016-06-12T08:15:36.424Z,480
2016-06-12T08:16:36.442Z,472
2016-06-12T08:17:36.445Z,452
2016-06-12T08:18:36.448Z,444
2016-06-12T08:19:36.452Z,444
2016-06-12T08:20:36.454Z,436
2016-06-12T08:21:37.208Z,444
2016-06-12T08:22:36.836Z,444
2016-06-12T08:23:36.495Z,436
2016-06-12T08:24:36.498Z,432
2016-06-12T08:25:36.345Z,440
2016-06-12T08:26:36.505Z,448
2016-06-12T08:27:36.523Z,460
2016-06-12T08:28:36.370Z,476
2016-06-12T08:29:36.530Z,500
2016-06-12T08:30:36.548Z,520
2016-06-12T08:31:36.567Z,536
2016-06-12T08:32:36.554Z,532
2016-06-12T08:33:36.557Z,524
2016-06-12T08:34:36.920Z,548
2016-06-12T08:35:36.969Z,552
2016-06-12T08:36:37.317Z,576
2016-06-12T08:37:37.476Z,588
2016-06-12T08:38:37.713Z,544
2016-06-12T08:39:37.607Z,552
2016-06-12T08:40:37.938Z,556
2016-06-12T08:41:37.863Z,536
2016-06-12T08:42:37.726Z,536
2016-06-12T08:43:37.604Z,532
2016-06-12T08:44:38.294Z,536
2016-06-12T08:45:36.704Z,548
2016-06-12T08:46:36.675Z,540
2016-06-12T08:47:36.662Z,528
2016-06-12T08:48:36.682Z,520
2016-06-12T08:49:36.779Z,512
2016-06-12T08:50:36.703Z,508
2016-06-12T08:51:36.691Z,512
2016-06-12T08:52:36.725Z,516
2016-06-12T08:53:36.728Z,508
2016-06-12T08:54:36.716Z,492
2016-06-12T08:55:36.719Z,484
2016-06-12T08:56:36.737Z,484
2016-06-12T08:57:36.632Z,484
2016-06-12T08:58:36.760Z,484
2016-06-12T08:59:36.778Z,496
2016-06-12T09:00:36.780Z,500
2016-06-12T09:01:36.769Z,500
2016-06-12T09:02:36.787Z,508
2016-06-12T09:03:36.790Z,508
2016-06-12T09:04:36.793Z,508
2016-06-12T09:05:36.828Z,508
2016-06-12T09:06:37.471Z,504
2016-06-12T09:07:36.912Z,500
2016-06-12T09:08:36.838Z,492
2016-06-12T09:09:36.840Z,492
2016-06-12T09:10:36.844Z,496
2016-06-12T09:11:36.847Z,504
2016-06-12T09:12:36.864Z,504
2016-06-12T09:13:36.867Z,504
2016-06-12T09:14:36.872Z,504
2016-06-12T09:15:36.915Z,508
2016-06-12T09:16:37.319Z,528
2016-06-12T09:17:36.800Z,548
2016-06-12T09:18:37.813Z,544
2016-06-12T09:19:38.325Z,540
2016-06-12T09:20:37.139Z,524
2016-06-12T09:21:37.156Z,512
2016-06-12T09:22:37.628Z,500
2016-06-12T09:23:37.192Z,492
2016-06-12T09:24:37.225Z,480
2016-06-12T09:25:37.249Z,476
2016-06-12T09:26:37.257Z,476
2016-06-12T09:27:37.265Z,476
2016-06-12T09:28:37.274Z,476
2016-06-12T09:29:37.282Z,480
2016-06-12T09:30:37.302Z,476
2016-06-12T09:31:37.306Z,476
2016-06-12T09:32:37.328Z,480
2016-06-12T09:33:37.316Z,480
2016-06-12T09:34:37.337Z,484
2016-06-12T09:35:37.341Z,484
2016-06-12T09:36:37.361Z,484
2016-06-12T09:37:37.365Z,488
2016-06-12T09:38:37.368Z,492
2016-06-12T09:39:37.826Z,496
2016-06-12T09:40:37.376Z,504
2016-06-12T09:41:37.394Z,508
2016-06-12T09:42:37.398Z,508
2016-06-12T09:43:37.417Z,508
2016-06-12T09:44:37.452Z,504
2016-06-12T09:45:37.424Z,508
2016-06-12T09:46:37.427Z,508
2016-06-12T09:47:37.445Z,508
2016-06-12T09:48:37.448Z,512
2016-06-12T09:49:37.998Z,516
2016-06-12T09:50:37.454Z,520
2016-06-12T09:51:37.474Z,520
2016-06-12T09:52:37.554Z,520
2016-06-12T09:53:37.495Z,524
2016-06-12T09:54:37.342Z,528
2016-06-12T09:55:37.517Z,532
2016-06-12T09:56:37.519Z,528
2016-06-12T09:57:37.522Z,528
2016-06-12T09:58:37.589Z,528
2016-06-12T09:59:38.451Z,524
2016-06-12T10:00:37.548Z,528
2016-06-12T10:01:37.567Z,536
2016-06-12T10:02:37.554Z,528
2016-06-12T10:03:37.573Z,528
2016-06-12T10:04:37.622Z,520
2016-06-12T10:06:02.770Z,520
2016-06-12T10:06:37.583Z,520
2016-06-12T10:07:38.038Z,512
2016-06-12T10:08:37.619Z,516
2016-06-12T10:09:37.638Z,524
2016-06-12T10:10:37.626Z,520
2016-06-12T10:11:37.628Z,520
2016-06-12T10:12:37.710Z,520
2016-06-12T10:13:37.682Z,516
2016-06-12T10:14:38.091Z,516
2016-06-12T10:15:37.672Z,512
2016-06-12T10:16:37.659Z,508
2016-06-12T10:17:37.678Z,508
2016-06-12T10:18:37.681Z,500
2016-06-12T10:19:37.701Z,492
2016-06-12T10:20:37.687Z,484
2016-06-12T10:21:37.706Z,472
2016-06-12T10:22:38.085Z,464
2016-06-12T10:23:37.713Z,456
2016-06-12T10:24:37.950Z,444
2016-06-12T10:25:37.719Z,436
2016-06-12T10:26:37.722Z,432
2016-06-12T10:27:37.740Z,428
2016-06-12T10:28:37.759Z,428
2016-06-12T10:29:37.762Z,420
2016-06-12T10:30:44.218Z,416
2016-06-12T10:31:37.785Z,412
2016-06-12T10:32:37.772Z,412
2016-06-12T10:33:37.837Z,412
2016-06-12T10:34:37.793Z,412
2016-06-12T10:35:37.797Z,416
2016-06-12T10:36:37.831Z,420
2016-06-12T10:37:39.349Z,416
2016-06-12T10:38:37.665Z,408
2016-06-12T10:39:37.684Z,412
2016-06-12T10:40:37.843Z,416
2016-06-12T10:41:37.846Z,416
2016-06-12T10:42:37.864Z,416
2016-06-12T10:43:37.883Z,412
2016-06-12T10:44:37.870Z,412
2016-06-12T10:45:37.873Z,412
2016-06-12T10:46:37.892Z,404
2016-06-12T10:47:37.754Z,408
2016-06-12T10:48:37.915Z,412
2016-06-12T10:49:38.058Z,412
2016-06-12T10:50:37.920Z,412
2016-06-12T10:51:37.924Z,416
2016-06-12T10:52:37.942Z,412
2016-06-12T10:53:37.944Z,416
2016-06-12T10:54:37.948Z,416
2016-06-12T10:55:37.951Z,412
2016-06-12T10:56:37.986Z,416
2016-06-12T10:57:37.973Z,412
2016-06-12T10:58:37.977Z,412
2016-06-12T10:59:37.979Z,424
2016-06-12T11:00:37.998Z,424
2016-06-12T11:01:38.672Z,424
2016-06-12T11:02:38.005Z,428
2016-06-12T11:03:38.023Z,432
2016-06-12T11:04:38.025Z,428
2016-06-12T11:05:38.029Z,432
2016-06-12T11:06:38.048Z,436
2016-06-12T11:07:39.690Z,440
2016-06-12T11:08:40.023Z,440
2016-06-12T11:09:39.369Z,452
2016-06-12T11:10:39.216Z,456
2016-06-12T11:11:39.172Z,464
2016-06-12T11:12:39.238Z,476
2016-06-12T11:13:39.147Z,480
2016-06-12T11:14:39.135Z,484
2016-06-12T11:15:39.123Z,484
2016-06-12T11:16:39.407Z,484
2016-06-12T11:17:39.019Z,480
2016-06-12T11:18:38.131Z,480
2016-06-12T11:19:38.150Z,476
2016-06-12T11:20:38.153Z,480
2016-06-12T11:21:38.156Z,480
2016-06-12T11:22:38.175Z,480
2016-06-12T11:23:38.662Z,484
2016-06-12T11:24:38.431Z,480
2016-06-12T11:25:38.184Z,484
2016-06-12T11:26:38.187Z,492
2016-06-12T11:27:38.034Z,496
2016-06-12T11:28:38.209Z,500
2016-06-12T11:29:38.213Z,500
2016-06-12T11:30:38.058Z,504
2016-06-12T11:31:38.233Z,508
2016-06-12T11:32:38.268Z,512
2016-06-12T11:33:38.256Z,524
2016-06-12T11:34:38.259Z,524
2016-06-12T11:35:38.277Z,528
2016-06-12T11:36:38.280Z,528
2016-06-12T11:37:39.050Z,536
2016-06-12T11:38:39.084Z,532
2016-06-12T11:39:38.306Z,536
2016-06-12T11:40:38.293Z,532
2016-06-12T11:41:38.311Z,536
2016-06-12T11:42:38.314Z,532
2016-06-12T11:43:38.333Z,536
2016-06-12T11:44:38.351Z,532
2016-06-12T11:45:38.183Z,536
2016-06-12T11:46:38.452Z,528
2016-06-12T11:47:38.361Z,528
2016-06-12T11:48:38.364Z,532
2016-06-12T11:49:38.399Z,540
2016-06-12T11:50:38.386Z,540
2016-06-12T11:51:38.405Z,544
2016-06-12T11:52:38.392Z,540
2016-06-12T11:53:38.427Z,540
2016-06-12T11:54:38.398Z,540
2016-06-12T11:55:38.418Z,544
2016-06-12T11:56:38.436Z,548
2016-06-12T11:57:38.423Z,544
2016-06-12T11:58:38.426Z,548
2016-06-12T11:59:38.445Z,556
2016-06-12T12:00:38.448Z,552
2016-06-12T12:01:38.451Z,544
2016-06-12T12:02:38.470Z,536
2016-06-12T12:03:38.473Z,528
2016-06-12T12:04:38.335Z,520
2016-06-12T12:05:38.510Z,512
2016-06-12T12:06:38.497Z,512
2016-06-12T12:07:39.079Z,512
2016-06-12T12:08:39.285Z,504
2016-06-12T12:09:38.538Z,500
2016-06-12T12:10:38.542Z,500
2016-06-12T12:11:38.544Z,496
2016-06-12T12:12:38.547Z,492
2016-06-12T12:13:38.551Z,488
2016-06-12T12:14:38.569Z,480
2016-06-12T12:15:38.572Z,472
2016-06-12T12:16:38.576Z,472
2016-06-12T12:17:38.578Z,472
2016-06-12T12:18:38.597Z,468
2016-06-12T12:19:38.617Z,468
2016-06-12T12:20:38.620Z,464
2016-06-12T12:21:38.623Z,464
2016-06-12T12:22:38.485Z,464
2016-06-12T12:23:38.957Z,464
2016-06-12T12:24:38.646Z,460
2016-06-12T12:25:38.650Z,468
2016-06-12T12:26:38.653Z,464
2016-06-12T12:27:38.655Z,464
2016-06-12T12:28:38.690Z,472
2016-06-12T12:29:38.678Z,468
2016-06-12T12:30:38.681Z,476
2016-06-12T12:31:38.544Z,476
2016-06-12T12:32:38.718Z,480
2016-06-12T12:33:38.706Z,484
2016-06-12T12:34:38.725Z,484
2016-06-12T12:35:38.727Z,492
2016-06-12T12:36:38.730Z,496
2016-06-12T12:37:40.233Z,500
2016-06-12T12:38:38.814Z,504
2016-06-12T12:39:38.771Z,504
2016-06-12T12:40:38.759Z,504
2016-06-12T12:41:38.776Z,508
2016-06-12T12:42:38.796Z,504
2016-06-12T12:43:38.799Z,516
2016-06-12T12:44:38.803Z,516
2016-06-12T12:45:38.805Z,540
2016-06-12T12:46:38.808Z,536
2016-06-12T12:47:38.811Z,528
2016-06-12T12:48:38.814Z,540
2016-06-12T12:49:38.834Z,544
2016-06-12T12:50:38.852Z,528
2016-06-12T12:51:38.840Z,552
2016-06-12T12:52:39.733Z,540
2016-06-12T12:53:39.205Z,560
2016-06-12T12:54:38.864Z,560
2016-06-12T12:55:38.883Z,544
2016-06-12T12:56:38.886Z,556
2016-06-12T12:57:38.904Z,556
2016-06-12T12:58:38.907Z,536
2016-06-12T12:59:38.911Z,532
2016-06-12T13:00:38.929Z,536
2016-06-12T13:01:38.917Z,540
2016-06-12T13:02:38.936Z,552
2016-06-12T13:03:38.969Z,548
2016-06-12T13:04:38.957Z,536
2016-06-12T13:05:38.945Z,548
2016-06-12T13:06:38.963Z,536
2016-06-12T13:07:39.389Z,540
2016-06-12T13:08:39.298Z,544
2016-06-12T13:09:38.988Z,524
2016-06-12T13:10:38.991Z,516
2016-06-12T13:11:39.011Z,508
2016-06-12T13:12:38.872Z,492
2016-06-12T13:13:39.016Z,476
2016-06-12T13:14:39.019Z,460
2016-06-12T13:15:39.038Z,460
2016-06-12T13:16:39.056Z,472
2016-06-12T13:17:39.060Z,484
2016-06-12T13:18:39.063Z,476
2016-06-12T13:19:39.066Z,472
2016-06-12T13:20:39.069Z,464
2016-06-12T13:21:39.088Z,456
2016-06-12T13:22:39.622Z,452
2016-06-12T13:23:39.422Z,448
2016-06-12T13:24:39.098Z,444
2016-06-12T13:25:39.115Z,444
2016-06-12T13:26:39.118Z,436
2016-06-12T13:27:39.122Z,416
2016-06-12T13:28:39.140Z,404
2016-06-12T13:29:39.143Z,392
2016-06-12T13:30:39.147Z,388
2016-06-12T13:31:39.149Z,388
2016-06-12T13:32:39.168Z,392
2016-06-12T13:33:39.172Z,388
2016-06-12T13:34:39.190Z,392
2016-06-12T13:35:39.192Z,392
2016-06-12T13:36:39.196Z,392
2016-06-12T13:37:39.199Z,396
2016-06-12T13:38:39.656Z,396
2016-06-12T13:39:39.566Z,408
2016-06-12T13:40:39.286Z,404
2016-06-12T13:41:39.243Z,408
2016-06-12T13:42:39.246Z,420
2016-06-12T13:43:39.264Z,424
2016-06-12T13:44:39.268Z,420
2016-06-12T13:45:39.271Z,412
2016-06-12T13:46:39.118Z,400
2016-06-12T13:47:39.277Z,380
2016-06-12T13:48:39.529Z,368
2016-06-12T13:49:39.283Z,364
2016-06-12T13:50:39.349Z,356
2016-06-12T13:51:39.321Z,352
2016-06-12T13:52:39.323Z,352
2016-06-12T13:53:40.483Z,360
2016-06-12T13:54:39.346Z,364
2016-06-12T13:55:39.333Z,372
2016-06-12T13:56:39.351Z,384
2016-06-12T13:57:39.371Z,396
2016-06-12T13:58:39.358Z,408
2016-06-12T13:59:39.377Z,404
2016-06-12T14:00:39.411Z,408
2016-06-12T14:01:39.383Z,428